Decoded Metar for KCGS (COLLEGE PARK in MD, USA) (IATA:CGS) | Meteo·Mobile Aviation Weather
aviador You're here:

KCGS Decoded Metar

COLLEGE PARK in MD, USA
Report Time2019-04-23 16:24:00
UTC Time2019-04-23 16:50:53
Flight Rules vfr VFR
Wind230° at 04 kt
W.Decomp.*RWY 33: 0.1 kt HW 4 kt LCW
Visibility9999 m
Phenomena:N/A
Clouds:N/A
Expected CloudBase > 6,400 ft AGL from Temp-Dew spread
CeilingNone
Temp24°C (ISA +9)
Dew Point08°C (36% RH)
AAT22.1°C
QNH1015 hPa
Density Alt1,184 ft
Elevation49 ft
Report Wrong Elevation
Raw Report
KCGS 231624Z AUTO 23004KT 10SM CLR 24/08 A2998 RMK AO1
T02420077=

Extra information for KCGS:More info

Metar Taf Metar & Taf Last 4 Metars F.Rules Stats Wind Profile Meteogram Temp Stats Airport Information Weather charts Add Link Nearby VenuesMetar ALERT Operation Metar Decoded Social comments

AIRNAV info for KCGS